Saline County Regional Airport
KSUZ : now visible

Airfield :











YOU CAN JOIN US ON...

 
LOGIN :

Register | Disclaimer

   EN    FR    IT 

 









Legend :    VFR   Marginal VFR   IFR   Intensive IFR   Very Intensive IFR
Visi :
Ceiling :
>= 8 km
>= 3000ft
5 to 8 km
1000 to 3000 ft
1500m to 5 km
500 to 1000 ft
800 to 1500m
200 to 500 ft
< 800m
< 200 ft
Symbols :   Thunderstorms  Fog  Heavy snow  Heavy precipitations  Wind > 20 kt






- Airport Elevation : 390 ft


KSUZ - Saline County Regional

CURRENT METAR :
  • 261655Z AUTO 34012G17KT 10SM BKN036 OVC043 06/M02 A3023 RMK A01

EXPIRED METARs :
  • 261635Z AUTO 31011G18KT 10SM SCT036 BKN044 OVC050 07/M02 A3022 RMK A01
  • 261615Z AUTO 33007G18KT 290V360 8SM SCT033 BKN042 BKN075 06/M01 A3021 RMK A01
  • 261555Z AUTO 01008KT 10SM FEW040 BKN047 BKN075 06/M00 A3021 RMK A01
  • 261535Z AUTO 36011G16KT 10SM SCT030 BKN039 OVC046 06/M01 A3020 RMK A01
  • 261515Z AUTO 34008G17KT 300V010 10SM BKN029 OVC036 06/M01 A3020 RMK A01
  • 261455Z AUTO 34009G15KT 310V010 10SM SCT030 OVC039 06/M00 A3018 RMK A01
  • 261435Z AUTO 33008G14KT 10SM FEW029 BKN037 OVC070 06/M00 A3018 RMK A01
  • 261415Z AUTO VRB06G14KT 10SM SCT030 BKN065 OVC090 06/00 A3017 RMK A01

TAF N/A



MET'MAP, your aeronautical weather chart ! - Copyright ORBIFLY December 2007 - Disclaimer

ORBIFLY MET'MAP TEAM :

Programming & Development : Alexandra Zaïnal
Concept & original design : Baudouin d'Aumeries
Assistance for programming : Marc-Olivier Méhu
Technical & hardware support : Manuel Goepfert

Contact : metmap@orbifly.com




SOURCES & CREDITS :

   NOAA       Earth
Advisory